N1930G KLAX-KSAN
Flight info
| Callsign | N1930G |
|---|---|
| Flight time | 0h 36m |
| Altitude | 13000 |
| Route | LAXX1 MZB |
| Aircraft | STAR/L-SDFGRWY/S |
Departure
| Time | 2026-04-26 00:23 |
|---|---|
| Airport | Los Angeles International Airport (KLAX) |
Arrival
| Time | 2026-04-26 01:00 |
|---|---|
| Airport | San Diego International Airport (KSAN) |
| Time | Latitude | Longitude | Altitude | Speed | Heading |
|---|---|---|---|---|---|
| 2026-04-25 23:56 | 33.93344 | -118.39474 | 119 ft | 0 kts | 109° |
| 2026-04-26 00:18 | 33.93344 | -118.39473 | 131 ft | 2 kts | 108° |
| 2026-04-26 00:18 | 33.93375 | -118.39424 | 120 ft | 11 kts | 33° |
| 2026-04-26 00:19 | 33.93430 | -118.39390 | 121 ft | 2 kts | 9° |
| 2026-04-26 00:19 | 33.93431 | -118.39390 | 121 ft | 0 kts | 9° |
| 2026-04-26 00:20 | 33.93464 | -118.39387 | 120 ft | 13 kts | 0° |
| 2026-04-26 00:20 | 33.93508 | -118.39296 | 120 ft | 17 kts | 83° |
| 2026-04-26 00:21 | 33.93525 | -118.39141 | 120 ft | 21 kts | 83° |
| 2026-04-26 00:21 | 33.93543 | -118.38956 | 121 ft | 24 kts | 83° |
| 2026-04-26 00:21 | 33.93564 | -118.38748 | 121 ft | 26 kts | 83° |
| 2026-04-26 00:21 | 33.93587 | -118.38529 | 121 ft | 28 kts | 83° |
| 2026-04-26 00:22 | 33.93612 | -118.38289 | 120 ft | 29 kts | 80° |
| 2026-04-26 00:22 | 33.93611 | -118.38223 | 121 ft | 8 kts | 273° |
| 2026-04-26 00:22 | 33.93696 | -118.38283 | 121 ft | 17 kts | 354° |
| 2026-04-26 00:22 | 33.93731 | -118.38348 | 121 ft | 20 kts | 263° |
| 2026-04-26 00:23 | 33.93695 | -118.38704 | 121 ft | 67 kts | 263° |
| 2026-04-26 00:23 | 33.93612 | -118.39483 | 144 ft | 119 kts | 263° |
| 2026-04-26 00:23 | 33.93483 | -118.40548 | 561 ft | 140 kts | 261° |
| 2026-04-26 00:23 | 33.93294 | -118.41731 | 1130 ft | 149 kts | 260° |
| 2026-04-26 00:24 | 33.93091 | -118.42966 | 1746 ft | 150 kts | 259° |
| 2026-04-26 00:24 | 33.92858 | -118.44195 | 2389 ft | 150 kts | 257° |
| 2026-04-26 00:24 | 33.92289 | -118.45193 | 3098 ft | 147 kts | 219° |
| 2026-04-26 00:24 | 33.91459 | -118.45864 | 3881 ft | 140 kts | 215° |
| 2026-04-26 00:25 | 33.90601 | -118.46485 | 4478 ft | 152 kts | 213° |
| 2026-04-26 00:25 | 33.89607 | -118.47189 | 4753 ft | 180 kts | 213° |
| 2026-04-26 00:25 | 33.88435 | -118.48016 | 4879 ft | 210 kts | 213° |
| 2026-04-26 00:25 | 33.87138 | -118.48937 | 4936 ft | 223 kts | 213° |
| 2026-04-26 00:26 | 33.85761 | -118.49917 | 4960 ft | 235 kts | 213° |
| 2026-04-26 00:26 | 33.84345 | -118.50923 | 4974 ft | 236 kts | 213° |
| 2026-04-26 00:26 | 33.82932 | -118.51923 | 4981 ft | 236 kts | 212° |
| 2026-04-26 00:26 | 33.81457 | -118.52725 | 4984 ft | 237 kts | 197° |
| 2026-04-26 00:27 | 33.79905 | -118.53123 | 5425 ft | 220 kts | 193° |
| 2026-04-26 00:27 | 33.78447 | -118.53419 | 5882 ft | 205 kts | 192° |
| 2026-04-26 00:27 | 33.77074 | -118.53664 | 6304 ft | 194 kts | 192° |
| 2026-04-26 00:27 | 33.75760 | -118.53879 | 6628 ft | 189 kts | 191° |
| 2026-04-26 00:28 | 33.74462 | -118.54086 | 6908 ft | 188 kts | 191° |
| 2026-04-26 00:28 | 33.73153 | -118.54221 | 7236 ft | 192 kts | 178° |
| 2026-04-26 00:28 | 33.71948 | -118.53507 | 7970 ft | 203 kts | 140° |
| 2026-04-26 00:28 | 33.71165 | -118.51977 | 8337 ft | 229 kts | 117° |
| 2026-04-26 00:29 | 33.70641 | -118.50079 | 8590 ft | 248 kts | 108° |
| 2026-04-26 00:29 | 33.70209 | -118.48015 | 8807 ft | 261 kts | 107° |
| 2026-04-26 00:29 | 33.69690 | -118.45881 | 8913 ft | 271 kts | 111° |
| 2026-04-26 00:29 | 33.69111 | -118.43708 | 8950 ft | 275 kts | 109° |
| 2026-04-26 00:30 | 33.68568 | -118.41480 | 8987 ft | 280 kts | 109° |
| 2026-04-26 00:30 | 33.68002 | -118.39272 | 9003 ft | 279 kts | 110° |
| 2026-04-26 00:30 | 33.67429 | -118.37029 | 9013 ft | 276 kts | 110° |
| 2026-04-26 00:30 | 33.66879 | -118.34829 | 9011 ft | 273 kts | 110° |
| 2026-04-26 00:31 | 33.66328 | -118.32699 | 9016 ft | 269 kts | 111° |
| 2026-04-26 00:31 | 33.65789 | -118.30570 | 9012 ft | 264 kts | 110° |
| 2026-04-26 00:31 | 33.65259 | -118.28484 | 9014 ft | 259 kts | 110° |
| 2026-04-26 00:31 | 33.64737 | -118.26437 | 9014 ft | 254 kts | 110° |
| 2026-04-26 00:32 | 33.64219 | -118.24413 | 9017 ft | 253 kts | 110° |
| 2026-04-26 00:32 | 33.63706 | -118.22396 | 9017 ft | 253 kts | 110° |
| 2026-04-26 00:32 | 33.62673 | -118.18358 | 9017 ft | 254 kts | 111° |
| 2026-04-26 00:33 | 33.62156 | -118.16334 | 9018 ft | 254 kts | 111° |
| 2026-04-26 00:33 | 33.61637 | -118.14310 | 9016 ft | 254 kts | 111° |
| 2026-04-26 00:33 | 33.61119 | -118.12286 | 9018 ft | 254 kts | 111° |
| 2026-04-26 00:33 | 33.60600 | -118.10262 | 9020 ft | 255 kts | 111° |
| 2026-04-26 00:34 | 33.60058 | -118.08230 | 9014 ft | 255 kts | 116° |
| 2026-04-26 00:34 | 33.59040 | -118.06547 | 9023 ft | 249 kts | 141° |
| 2026-04-26 00:34 | 33.57719 | -118.05206 | 9019 ft | 249 kts | 146° |
| 2026-04-26 00:34 | 33.56345 | -118.03935 | 9022 ft | 250 kts | 148° |
| 2026-04-26 00:35 | 33.55003 | -118.02585 | 9024 ft | 254 kts | 142° |
| 2026-04-26 00:35 | 33.53699 | -118.01143 | 9023 ft | 255 kts | 143° |
| 2026-04-26 00:35 | 33.52346 | -117.99754 | 9028 ft | 257 kts | 144° |
| 2026-04-26 00:35 | 33.50993 | -117.98326 | 9023 ft | 261 kts | 143° |
| 2026-04-26 00:36 | 33.49625 | -117.96873 | 9015 ft | 264 kts | 143° |
| 2026-04-26 00:36 | 33.48244 | -117.95425 | 9016 ft | 264 kts | 143° |
| 2026-04-26 00:36 | 33.46872 | -117.93979 | 9017 ft | 262 kts | 143° |
| 2026-04-26 00:36 | 33.45511 | -117.92543 | 9015 ft | 260 kts | 143° |
| 2026-04-26 00:37 | 33.44151 | -117.91119 | 9004 ft | 259 kts | 143° |
| 2026-04-26 00:37 | 33.42793 | -117.89691 | 8998 ft | 259 kts | 143° |
| 2026-04-26 00:37 | 33.41440 | -117.88268 | 8987 ft | 258 kts | 143° |
| 2026-04-26 00:37 | 33.40090 | -117.86853 | 8992 ft | 258 kts | 143° |
| 2026-04-26 00:38 | 33.38754 | -117.85452 | 8993 ft | 260 kts | 143° |
| 2026-04-26 00:38 | 33.37395 | -117.84024 | 8993 ft | 259 kts | 143° |
| 2026-04-26 00:38 | 33.36037 | -117.82602 | 8995 ft | 260 kts | 143° |
| 2026-04-26 00:38 | 33.34674 | -117.81173 | 8992 ft | 261 kts | 143° |
| 2026-04-26 00:39 | 33.33308 | -117.79743 | 8991 ft | 261 kts | 143° |
| 2026-04-26 00:39 | 33.31949 | -117.78319 | 8995 ft | 260 kts | 143° |
| 2026-04-26 00:39 | 33.30590 | -117.76897 | 8996 ft | 259 kts | 143° |
| 2026-04-26 00:39 | 33.29232 | -117.75475 | 9000 ft | 260 kts | 143° |
| 2026-04-26 00:40 | 33.28059 | -117.73808 | 8998 ft | 267 kts | 125° |
| 2026-04-26 00:40 | 33.27187 | -117.71824 | 8980 ft | 270 kts | 120° |
| 2026-04-26 00:40 | 33.26348 | -117.69824 | 8978 ft | 268 kts | 123° |
| 2026-04-26 00:40 | 33.25423 | -117.67893 | 8977 ft | 267 kts | 123° |
| 2026-04-26 00:41 | 33.24542 | -117.65937 | 8976 ft | 267 kts | 122° |
| 2026-04-26 00:41 | 33.23659 | -117.63989 | 8971 ft | 266 kts | 123° |
| 2026-04-26 00:41 | 33.22763 | -117.62055 | 8974 ft | 266 kts | 123° |
| 2026-04-26 00:41 | 33.21876 | -117.60106 | 8976 ft | 267 kts | 122° |
| 2026-04-26 00:42 | 33.20987 | -117.58160 | 8978 ft | 267 kts | 123° |
| 2026-04-26 00:42 | 33.20096 | -117.56222 | 8978 ft | 267 kts | 123° |
| 2026-04-26 00:42 | 33.19206 | -117.54278 | 8979 ft | 267 kts | 123° |
| 2026-04-26 00:42 | 33.18317 | -117.52338 | 8979 ft | 267 kts | 123° |
| 2026-04-26 00:43 | 33.17424 | -117.50394 | 8979 ft | 267 kts | 123° |
| 2026-04-26 00:43 | 33.16535 | -117.48457 | 8979 ft | 266 kts | 123° |
| 2026-04-26 00:43 | 33.15645 | -117.46515 | 8979 ft | 266 kts | 123° |
| 2026-04-26 00:43 | 33.14753 | -117.44576 | 8980 ft | 267 kts | 123° |
| 2026-04-26 00:44 | 33.13826 | -117.42693 | 8977 ft | 265 kts | 133° |
| 2026-04-26 00:44 | 33.12433 | -117.41355 | 8980 ft | 255 kts | 158° |
| 2026-04-26 00:44 | 33.10811 | -117.40490 | 8982 ft | 256 kts | 163° |
| 2026-04-26 00:44 | 33.09149 | -117.39705 | 8981 ft | 258 kts | 163° |
| 2026-04-26 00:45 | 33.07514 | -117.38779 | 8981 ft | 261 kts | 159° |
| 2026-04-26 00:45 | 33.06411 | -117.38139 | 8978 ft | 260 kts | 160° |
| 2026-04-26 00:45 | 33.04230 | -117.36958 | 8978 ft | 260 kts | 161° |
| 2026-04-26 00:45 | 33.02593 | -117.36038 | 8982 ft | 259 kts | 160° |
| 2026-04-26 00:46 | 33.00962 | -117.35129 | 8985 ft | 258 kts | 161° |
| 2026-04-26 00:46 | 32.99332 | -117.34232 | 8988 ft | 259 kts | 161° |
| 2026-04-26 00:46 | 32.97702 | -117.33323 | 8988 ft | 260 kts | 160° |
| 2026-04-26 00:46 | 32.96067 | -117.32414 | 8988 ft | 258 kts | 161° |
| 2026-04-26 00:47 | 32.94439 | -117.31515 | 8989 ft | 257 kts | 161° |
| 2026-04-26 00:47 | 32.92767 | -117.30594 | 8511 ft | 271 kts | 160° |
| 2026-04-26 00:47 | 32.91055 | -117.29637 | 8290 ft | 272 kts | 159° |
| 2026-04-26 00:47 | 32.89346 | -117.28690 | 8111 ft | 270 kts | 160° |
| 2026-04-26 00:48 | 32.87641 | -117.27751 | 7918 ft | 269 kts | 159° |
| 2026-04-26 00:48 | 32.85943 | -117.26809 | 7661 ft | 269 kts | 159° |
| 2026-04-26 00:48 | 32.84252 | -117.25876 | 7363 ft | 267 kts | 159° |
| 2026-04-26 00:48 | 32.82587 | -117.24955 | 7081 ft | 267 kts | 158° |
| 2026-04-26 00:49 | 32.80989 | -117.23837 | 6786 ft | 270 kts | 140° |
| 2026-04-26 00:49 | 32.79923 | -117.21994 | 6517 ft | 274 kts | 113° |
| 2026-04-26 00:49 | 32.79413 | -117.19815 | 6257 ft | 274 kts | 104° |
| 2026-04-26 00:49 | 32.79024 | -117.17601 | 6022 ft | 273 kts | 102° |
| 2026-04-26 00:50 | 32.78677 | -117.15386 | 5774 ft | 273 kts | 101° |
| 2026-04-26 00:50 | 32.78352 | -117.13180 | 5550 ft | 270 kts | 101° |
| 2026-04-26 00:50 | 32.78045 | -117.10981 | 5270 ft | 268 kts | 101° |
| 2026-04-26 00:50 | 32.77744 | -117.08807 | 5126 ft | 266 kts | 101° |
| 2026-04-26 00:51 | 32.77452 | -117.06655 | 5052 ft | 262 kts | 100° |
| 2026-04-26 00:51 | 32.77160 | -117.04541 | 5021 ft | 258 kts | 101° |
| 2026-04-26 00:51 | 32.76874 | -117.02455 | 5004 ft | 253 kts | 101° |
| 2026-04-26 00:51 | 32.76687 | -117.01094 | 4995 ft | 252 kts | 101° |
| 2026-04-26 00:52 | 32.76405 | -116.99050 | 4993 ft | 249 kts | 101° |
| 2026-04-26 00:52 | 32.76131 | -116.97018 | 4991 ft | 248 kts | 101° |
| 2026-04-26 00:52 | 32.75858 | -116.95014 | 4990 ft | 244 kts | 101° |
| 2026-04-26 00:52 | 32.75589 | -116.93035 | 4990 ft | 241 kts | 101° |
| 2026-04-26 00:53 | 32.75256 | -116.91097 | 4989 ft | 237 kts | 113° |
| 2026-04-26 00:53 | 32.74307 | -116.89564 | 4970 ft | 231 kts | 144° |
| 2026-04-26 00:53 | 32.72843 | -116.88814 | 4662 ft | 227 kts | 176° |
| 2026-04-26 00:53 | 32.71329 | -116.89076 | 4348 ft | 221 kts | 204° |
| 2026-04-26 00:54 | 32.69927 | -116.89819 | 4031 ft | 218 kts | 208° |
| 2026-04-26 00:54 | 32.68623 | -116.90668 | 3727 ft | 209 kts | 219° |
| 2026-04-26 00:54 | 32.67794 | -116.92013 | 3431 ft | 204 kts | 244° |
| 2026-04-26 00:54 | 32.67245 | -116.93553 | 3125 ft | 201 kts | 249° |
| 2026-04-26 00:55 | 32.67052 | -116.95152 | 2916 ft | 194 kts | 275° |
| 2026-04-26 00:55 | 32.67510 | -116.96629 | 2790 ft | 192 kts | 302° |
| 2026-04-26 00:55 | 32.68257 | -116.97939 | 2587 ft | 192 kts | 295° |
| 2026-04-26 00:55 | 32.68700 | -116.99430 | 2445 ft | 192 kts | 285° |
| 2026-04-26 00:56 | 32.69078 | -117.00990 | 2441 ft | 203 kts | 284° |
| 2026-04-26 00:56 | 32.69430 | -117.02662 | 2401 ft | 215 kts | 282° |
| 2026-04-26 00:56 | 32.69804 | -117.04410 | 2369 ft | 219 kts | 283° |
| 2026-04-26 00:56 | 32.70214 | -117.06103 | 2189 ft | 205 kts | 284° |
| 2026-04-26 00:57 | 32.70622 | -117.07661 | 1938 ft | 191 kts | 284° |
| 2026-04-26 00:57 | 32.70990 | -117.09122 | 1734 ft | 180 kts | 283° |
| 2026-04-26 00:57 | 32.71322 | -117.10469 | 1469 ft | 161 kts | 283° |
| 2026-04-26 00:57 | 32.71601 | -117.11728 | 1176 ft | 149 kts | 282° |
| 2026-04-26 00:58 | 32.71861 | -117.12837 | 922 ft | 131 kts | 284° |
| 2026-04-26 00:58 | 32.72129 | -117.13905 | 743 ft | 137 kts | 283° |
| 2026-04-26 00:58 | 32.72391 | -117.14952 | 577 ft | 124 kts | 282° |
| 2026-04-26 00:58 | 32.72616 | -117.15889 | 409 ft | 116 kts | 280° |
| 2026-04-26 00:59 | 32.72830 | -117.16784 | 269 ft | 114 kts | 281° |
| 2026-04-26 00:59 | 32.73043 | -117.17681 | 118 ft | 112 kts | 281° |
| 2026-04-26 00:59 | 32.73253 | -117.18535 | 25 ft | 97 kts | 280° |
| 2026-04-26 00:59 | 32.73415 | -117.19203 | 19 ft | 69 kts | 288° |
| 2026-04-26 01:00 | 32.73418 | -117.19500 | 23 ft | 22 kts | 229° |
| 2026-04-26 01:00 | 32.73404 | -117.19527 | 23 ft | 0 kts | 251° |
| 2026-04-26 01:00 | 32.73400 | -117.19532 | 25 ft | 6 kts | 208° |
| 2026-04-26 01:01 | 32.73357 | -117.19397 | 22 ft | 32 kts | 106° |
| 2026-04-26 01:01 | 32.73289 | -117.19117 | 21 ft | 32 kts | 106° |
| 2026-04-26 01:01 | 32.73242 | -117.18920 | 22 ft | 23 kts | 106° |
| 2026-04-26 01:01 | 32.73199 | -117.18745 | 21 ft | 21 kts | 106° |
| 2026-04-26 01:02 | 32.73160 | -117.18583 | 23 ft | 21 kts | 106° |
| 2026-04-26 01:02 | 32.73154 | -117.18490 | 22 ft | 0 kts | 52° |
| 2026-04-26 01:03 | 32.73197 | -117.18464 | 22 ft | 16 kts | 17° |
| 2026-04-26 01:03 | 32.73319 | -117.18415 | 23 ft | 14 kts | 52° |
| 2026-04-26 01:04 | 32.73318 | -117.18334 | 21 ft | 10 kts | 105° |
| 2026-04-26 01:04 | 32.73296 | -117.18245 | 21 ft | 12 kts | 106° |
| 2026-04-26 01:04 | 32.73273 | -117.18151 | 21 ft | 12 kts | 106° |
| 2026-04-26 01:04 | 32.73249 | -117.18054 | 21 ft | 13 kts | 106° |
| 2026-04-26 01:05 | 32.73282 | -117.17976 | 22 ft | 11 kts | 17° |
| 2026-04-26 01:05 | 32.73353 | -117.17952 | 24 ft | 10 kts | 16° |
| 2026-04-26 01:05 | 32.73363 | -117.17896 | 25 ft | 2 kts | 150° |